Terminal Aerodrome Forecast
Issued by NWS Twin Cities, MN

Home | Current Version | Previous Version | Graphics & Text | Print | Product List | Glossary On
Versions: 1 2 3 4 5 6 7 8 9 10 11 12 13 14 15 16 17 18 19 20 21 22 23 24 25 26
000
FTUS43 KMPX 210800 AAA
TAFMSP
TAF AMD
KMSP 210847Z 2109/2212 12006KT 6SM -SHRA BR VCTS SCT015 BKN035CB
     FM211100 12006KT 2SM TSRA BR BKN020 BKN040CB
      TEMPO 2111/2114 3/4SM +TSRA BR OVC009CB
     FM211400 12009KT 6SM BR SCT015 BKN025 OVC100
     FM211800 17009KT P6SM BKN035 BKN110
     FM220000 03004KT P6SM BKN090=

USA.gov is the U.S. government's official web portal to all federal, state and local government web resources and services.